5 day graph

You are here

Error message

  • Notice: Trying to access array offset on value of type int in DrupalRequestSanitizer::stripDangerousValues() (line 102 of /home/twolittl/public_html/cms/includes/request-sanitizer.inc).
  • Notice: Trying to access array offset on value of type int in DrupalRequestSanitizer::stripDangerousValues() (line 102 of /home/twolittl/public_html/cms/includes/request-sanitizer.inc).
  • Notice: Trying to access array offset on value of type int in DrupalRequestSanitizer::stripDangerousValues() (line 102 of /home/twolittl/public_html/cms/includes/request-sanitizer.inc).
  • Notice: Trying to access array offset on value of type int in DrupalRequestSanitizer::stripDangerousValues() (line 102 of /home/twolittl/public_html/cms/includes/request-sanitizer.inc).
  • Notice: Trying to access array offset on value of type int in DrupalRequestSanitizer::stripDangerousValues() (line 102 of /home/twolittl/public_html/cms/includes/request-sanitizer.inc).
  • Notice: Trying to access array offset on value of type int in DrupalRequestSanitizer::stripDangerousValues() (line 102 of /home/twolittl/public_html/cms/includes/request-sanitizer.inc).
  • Notice: Trying to access array offset on value of type int in DrupalRequestSanitizer::stripDangerousValues() (line 102 of /home/twolittl/public_html/cms/includes/request-sanitizer.inc).
  • Notice: Trying to access array offset on value of type int in DrupalRequestSanitizer::stripDangerousValues() (line 102 of /home/twolittl/public_html/cms/includes/request-sanitizer.inc).
  • Deprecated function: Function get_magic_quotes_gpc() is deprecated in phpMyEdit->get_cgi_var() (line 1773 of /home/twolittl/public_html/phpMyEdit.class.php).
  • Deprecated function: implode(): Passing glue string after array is deprecated. Swap the parameters in drupal_get_feeds() (line 394 of /home/twolittl/public_html/cms/includes/common.inc).

Hive Data

Page: 1 of 16645  Records: 998690

Row Date Time Hive Temp Hive Humidity Outside Temp Outside Humidity Bottom Board Temp Outside Wall Temp Electronics Temp Light Levels inHG Fan Heat Cover Notes
Clear Sorted By: Hive Temp ascending, Outside Humidity ascending, Outside Wall Temp ascending, Row descending
View 696803 Nov 11 2015 2:59:26pm 25.3 45 10.9 59 52.7 54.5 68 931 29.56 0 1 0 NA
View 696804 Nov 11 2015 3:00:27pm 25.6 41 11 59 54.95 54.5 68 930 29.56 0 1 0 NA
View 271194 Dec 4 2014 12:44:09am 32 0 44.24 39 56.3 45.5 64.4 235 29.03 0 1 0 NA
View 271193 Dec 4 2014 12:43:09am 32 0 44.24 39 53.15 45.5 64.4 244 29.04 0 1 0 NA
View 48335 Jun 7 2014 8:25:04pm 32 0 71.06 45 80.6 71.6 87.8 623 29.43 0 0 0 NA
View 367392 Feb 17 2015 6:23:31am 32 0 37.22 69 106.25 39.65 60.8 237 29.42 0 1 0 NA
View 367391 Feb 17 2015 6:22:31am 32 0 37.04 70 106.25 39.65 60.8 237 29.43 0 1 0 NA
View 367390 Feb 17 2015 6:21:30am 32 0 36.68 70 106.25 39.65 60.8 236 29.43 0 1 0 NA
View 367165 Feb 17 2015 2:32:00am 32 0 34.52 70 77.45 40.1 59 238 29.47 0 1 0 NA
View 367162 Feb 17 2015 2:28:58am 32 0 34.52 70 76.1 40.55 59 239 29.46 0 1 0 NA
View 367299 Feb 17 2015 4:48:23am 32 0 33.62 71 102.65 38.75 60.8 238 29.44 0 1 0 NA
View 367298 Feb 17 2015 4:47:23am 32 0 33.62 71 102.65 38.75 60.8 237 29.44 0 1 0 NA
View 367286 Feb 17 2015 4:35:18am 32 0 33.8 71 102.2 38.75 59 237 29.44 0 1 0 NA
View 367285 Feb 17 2015 4:34:18am 32 0 33.62 71 102.2 38.75 59 237 29.44 0 1 0 NA
View 367284 Feb 17 2015 4:33:17am 32 0 33.8 71 102.2 38.75 59 237 29.45 0 1 0 NA
View 367283 Feb 17 2015 4:32:17am 32 0 33.8 71 101.75 38.75 59 237 29.44 0 1 0 NA
View 367282 Feb 17 2015 4:31:17am 32 0 33.8 71 101.75 38.75 59 237 29.44 0 1 0 NA
View 367278 Feb 17 2015 4:27:15am 32 0 33.8 71 101.75 38.75 59 238 29.44 0 1 0 NA
View 367276 Feb 17 2015 4:25:14am 32 0 33.8 71 101.3 38.75 59 238 29.44 0 1 0 NA
View 367275 Feb 17 2015 4:24:14am 32 0 33.8 71 101.3 38.75 59 238 29.44 0 1 0 NA
View 367273 Feb 17 2015 4:22:13am 32 0 33.8 71 101.3 38.75 59 238 29.45 0 1 0 NA
View 367388 Feb 17 2015 6:19:30am 32 0 36.14 71 105.8 39.2 60.8 237 29.43 0 1 0 NA
View 367272 Feb 17 2015 4:21:13am 32 0 33.8 71 101.3 39.2 59 238 29.44 0 1 0 NA
View 367271 Feb 17 2015 4:20:12am 32 0 33.8 71 100.85 39.2 59 237 29.45 0 1 0 NA
View 367270 Feb 17 2015 4:19:12am 32 0 33.8 71 100.85 39.2 59 238 29.44 0 1 0 NA
View 367269 Feb 17 2015 4:18:12am 32 0 33.8 71 100.85 39.2 59 238 29.45 0 1 0 NA
View 367262 Feb 17 2015 4:11:09am 32 0 33.98 71 100.4 39.2 59 238 29.45 0 1 0 NA
View 367257 Feb 17 2015 4:06:07am 32 0 33.98 71 99.95 39.2 59 239 29.45 0 1 0 NA
View 367250 Feb 17 2015 3:58:17am 32 0 34.16 71 99.05 39.2 59 238 29.45 0 1 0 NA
View 367249 Feb 17 2015 3:57:17am 32 0 34.34 71 99.05 39.2 59 237 29.45 0 1 0 NA
View 367389 Feb 17 2015 6:20:30am 32 0 36.32 71 105.8 39.65 60.8 236 29.43 0 1 0 NA
View 367220 Feb 17 2015 3:28:06am 32 0 34.16 71 95 39.65 59 237 29.46 0 1 0 NA
View 367219 Feb 17 2015 3:27:06am 32 0 34.16 71 95 39.65 59 238 29.46 0 1 0 NA
View 367215 Feb 17 2015 3:23:04am 32 0 34.34 71 94.1 39.65 59 238 29.46 0 1 0 NA
View 367214 Feb 17 2015 3:22:04am 32 0 34.34 71 94.1 39.65 59 238 29.46 0 1 0 NA
View 367213 Feb 17 2015 3:21:03am 32 0 34.34 71 93.65 39.65 59 237 29.46 0 1 0 NA
View 367212 Feb 17 2015 3:20:03am 32 0 34.34 71 93.65 39.65 59 238 29.46 0 1 0 NA
View 367211 Feb 17 2015 3:19:03am 32 0 34.34 71 93.2 39.65 59 237 29.46 0 1 0 NA
View 367206 Feb 17 2015 3:14:01am 32 0 34.16 71 92.3 39.65 59 238 29.46 0 1 0 NA
View 367205 Feb 17 2015 3:13:00am 32 0 34.34 71 92.3 39.65 59 238 29.46 0 1 0 NA
View 367204 Feb 17 2015 3:12:00am 32 0 34.16 71 91.85 39.65 59 238 29.46 0 1 0 NA
View 367197 Feb 17 2015 3:04:58am 32 0 34.34 71 90.05 40.1 59 238 29.46 0 1 0 NA
View 367196 Feb 17 2015 3:03:57am 32 0 34.34 71 90.05 40.1 59 238 29.46 0 1 0 NA
View 367177 Feb 17 2015 2:44:04am 32 0 34.34 71 83.3 40.1 59 239 29.46 0 1 0 NA
View 367176 Feb 17 2015 2:43:04am 32 0 34.34 71 83.3 40.1 59 239 29.46 0 1 0 NA
View 367171 Feb 17 2015 2:38:02am 32 0 34.34 71 80.6 40.1 59 238 29.46 0 1 0 NA
View 367170 Feb 17 2015 2:37:01am 32 0 34.52 71 80.15 40.1 59 239 29.46 0 1 0 NA
View 367169 Feb 17 2015 2:36:01am 32 0 34.52 71 79.7 40.1 59 239 29.47 0 1 0 NA
View 367168 Feb 17 2015 2:35:01am 32 0 34.52 71 79.25 40.1 59 239 29.47 0 1 0 NA
View 367167 Feb 17 2015 2:34:00am 32 0 34.52 71 78.8 40.1 59 238 29.46 0 1 0 NA
View 367166 Feb 17 2015 2:33:00am 32 0 34.52 71 78.35 40.1 59 239 29.47 0 1 0 NA
View 367164 Feb 17 2015 2:30:59am 32 0 34.52 71 77 40.1 59 238 29.47 0 1 0 NA
View 367163 Feb 17 2015 2:29:59am 32 0 34.52 71 76.55 40.1 59 238 29.47 0 1 0 NA
View 367161 Feb 17 2015 2:27:58am 32 0 34.52 71 75.2 40.55 59 238 29.47 0 1 0 NA
View 367160 Feb 17 2015 2:26:58am 32 0 34.52 71 74.75 40.55 59 239 29.47 0 1 0 NA
View 367159 Feb 17 2015 2:25:57am 32 0 34.52 71 73.85 40.55 59 239 29.47 0 1 0 NA
View 367158 Feb 17 2015 2:24:57am 32 0 34.52 71 73.4 40.55 59 239 29.47 0 1 0 NA
View 367157 Feb 17 2015 2:23:57am 32 0 34.52 71 72.5 40.55 59 239 29.47 0 1 0 NA
View 367156 Feb 17 2015 2:22:56am 32 0 34.7 71 72.05 40.55 59 239 29.47 0 1 0 NA
View 367155 Feb 17 2015 2:21:56am 32 0 34.7 71 71.15 40.55 59 239 29.47 0 1 0 NA